Time;durP1;ratioP1;P1;durP2;ratioP2;P2;SDS_P1;SDS_P2;PMS_P1;PMS_P2;Temp;Humidity;BMP_temperature;BMP_pressure;BME280_temperature;BME280_humidity;BME280_pressure;Samples;Min_cycle;Max_cycle;Signal;HPM_P1;HPM_P2
2021/08/05 00:02:09;;;;;;;1.75;1.52;;;15.70;99.90;;;;;;5033882;28;20239;-78
2021/08/05 00:04:37;;;;;;;3.03;1.50;;;15.70;99.90;;;;;;5041029;28;20223;-79
2021/08/05 00:07:05;;;;;;;1.50;1.40;;;15.60;99.90;;;;;;5036446;28;20211;-77
2021/08/05 00:09:33;;;;;;;1.27;1.17;;;15.60;99.90;;;;;;5032391;28;20269;-78
2021/08/05 00:12:01;;;;;;;0.80;0.80;;;15.60;99.90;;;;;;5038428;28;20582;-79
2021/08/05 00:14:28;;;;;;;1.40;0.60;;;15.50;99.90;;;;;;5040002;28;20222;-78
2021/08/05 00:16:55;;;;;;;0.70;0.70;;;15.40;99.90;;;;;;5036351;28;20675;-78
2021/08/05 00:19:22;;;;;;;0.70;0.70;;;15.40;99.90;;;;;;5033007;28;20706;-78
2021/08/05 00:21:49;;;;;;;0.77;0.77;;;15.40;99.90;;;;;;5036129;28;20229;-81
2021/08/05 00:24:16;;;;;;;0.80;0.80;;;15.40;99.90;;;;;;5034745;28;20425;-79
2021/08/05 00:26:45;;;;;;;0.90;0.90;;;15.40;99.90;;;;;;5039672;28;20266;-77
2021/08/05 00:29:12;;;;;;;1.00;1.00;;;15.40;99.90;;;;;;5034766;28;20217;-77
2021/08/05 00:31:39;;;;;;;1.23;1.13;;;15.40;99.90;;;;;;5036908;28;20272;-80
2021/08/05 00:34:06;;;;;;;1.10;1.00;;;15.40;99.90;;;;;;5038282;28;20227;-80
2021/08/05 00:36:33;;;;;;;1.30;1.20;;;15.40;99.90;;;;;;5035374;28;20261;-77
2021/08/05 00:39:00;;;;;;;1.30;1.20;;;15.40;99.90;;;;;;5038811;28;20215;-82
2021/08/05 00:41:27;;;;;;;1.00;1.00;;;15.40;99.90;;;;;;5037675;28;20215;-81
2021/08/05 00:43:55;;;;;;;1.42;0.70;;;15.40;99.90;;;;;;5037021;28;20223;-78
2021/08/05 00:46:22;;;;;;;0.70;0.70;;;15.30;99.90;;;;;;5037988;28;20242;-79
2021/08/05 00:48:49;;;;;;;0.70;0.70;;;15.20;99.90;;;;;;5041999;28;20716;-78
2021/08/05 00:51:16;;;;;;;0.77;0.70;;;15.10;99.90;;;;;;5040799;28;20219;-78
2021/08/05 00:53:44;;;;;;;1.25;0.70;;;15.10;99.90;;;;;;5041128;28;20219;-77
2021/08/05 00:56:11;;;;;;;0.90;0.90;;;15.00;99.90;;;;;;5041943;28;20253;-81
2021/08/05 00:58:38;;;;;;;0.60;0.60;;;14.90;99.90;;;;;;5037834;28;20203;-78
2021/08/05 01:01:11;;;;;;;0.70;0.70;;;14.90;99.90;;;;;;5038218;28;20611;-79
2021/08/05 01:03:42;;;;;;;0.70;0.70;;;14.90;99.90;;;;;;5040262;28;20191;-81
2021/08/05 01:06:17;;;;;;;0.80;0.80;;;14.80;99.90;;;;;;5038713;28;20700;-83
2021/08/05 01:08:51;;;;;;;1.20;0.70;;;14.80;99.90;;;;;;5043464;28;20554;-81
2021/08/05 01:11:24;;;;;;;0.70;0.70;;;14.80;99.90;;;;;;5041954;28;20230;-83
2021/08/05 01:13:55;;;;;;;0.82;0.82;;;14.80;99.90;;;;;;5036309;28;20625;-81
2021/08/05 01:16:28;;;;;;;0.80;0.80;;;14.80;99.90;;;;;;5040758;28;20605;-83
2021/08/05 01:19:00;;;;;;;0.70;0.70;;;14.80;99.90;;;;;;5032947;28;20292;-81
2021/08/05 01:21:37;;;;;;;0.70;0.70;;;14.80;99.90;;;;;;5042123;28;20266;-80
2021/08/05 01:24:08;;;;;;;0.63;0.63;;;14.90;99.90;;;;;;5043273;28;20305;-78
2021/08/05 01:26:55;;;;;;;0.80;0.80;;;15.00;99.90;;;;;;5039925;28;20240;-77
2021/08/05 01:29:23;;;;;;;0.70;0.70;;;15.00;99.90;;;;;;5034801;28;20277;-82
2021/08/05 01:31:50;;;;;;;0.80;0.80;;;15.10;99.90;;;;;;5040484;28;20214;-78
2021/08/05 01:34:18;;;;;;;0.80;0.80;;;15.10;99.90;;;;;;5042379;28;20281;-80
2021/08/05 01:36:48;;;;;;;0.70;0.70;;;15.10;99.90;;;;;;5039300;28;20196;-80
2021/08/05 01:39:15;;;;;;;0.60;0.60;;;15.00;99.90;;;;;;5040867;28;20264;-84
2021/08/05 01:41:45;;;;;;;15.30;1.35;;;15.00;99.90;;;;;;5041786;28;20726;-81
2021/08/05 01:44:14;;;;;;;35.47;1.52;;;15.00;99.90;;;;;;5039694;28;20717;-77
2021/08/05 01:46:41;;;;;;;6.63;0.95;;;15.00;99.90;;;;;;5037880;28;20211;-78
2021/08/05 01:49:09;;;;;;;1.23;0.90;;;15.00;99.90;;;;;;5038683;28;20718;-78
2021/08/05 01:51:36;;;;;;;1.05;0.90;;;14.90;99.90;;;;;;5037489;28;20215;-82
2021/08/05 01:54:05;;;;;;;0.98;0.98;;;14.80;99.90;;;;;;5034830;28;20223;-80
2021/08/05 01:56:32;;;;;;;1.13;0.90;;;14.80;99.90;;;;;;5038149;28;20199;-80
2021/08/05 01:59:01;;;;;;;0.73;0.73;;;14.70;99.90;;;;;;5038829;28;20186;-79
2021/08/05 02:01:28;;;;;;;6.20;1.15;;;14.60;99.90;;;;;;5040654;28;20272;-82
2021/08/05 02:04:07;;;;;;;0.80;0.80;;;14.60;99.90;;;;;;5039862;28;20195;-82
2021/08/05 02:06:38;;;;;;;10.40;1.20;;;14.60;99.90;;;;;;5038417;28;20229;-78
2021/08/05 02:09:12;;;;;;;134.95;4.28;;;14.60;99.90;;;;;;5042458;28;20194;-78
2021/08/05 02:11:44;;;;;;;2.58;1.20;;;14.50;99.90;;;;;;5034342;28;20253;-76
2021/08/05 02:14:16;;;;;;;1.20;1.00;;;14.50;99.90;;;;;;5038959;28;20230;-83
2021/08/05 02:16:45;;;;;;;1.10;1.10;;;14.50;99.90;;;;;;5042767;28;20240;-80
2021/08/05 02:19:15;;;;;;;0.90;0.80;;;14.50;99.90;;;;;;5038844;28;20298;-81
2021/08/05 02:21:43;;;;;;;0.73;0.73;;;14.50;99.90;;;;;;5040993;28;20871;-83
2021/08/05 02:24:11;;;;;;;0.68;0.68;;;14.50;99.90;;;;;;5037575;28;20254;-80
2021/08/05 02:26:38;;;;;;;0.98;0.98;;;14.60;99.90;;;;;;5042109;28;20196;-84
2021/08/05 02:29:06;;;;;;;0.80;0.80;;;14.60;99.90;;;;;;5041255;28;20199;-78
2021/08/05 02:31:37;;;;;;;0.88;0.88;;;14.70;99.90;;;;;;5039926;28;20227;-78
2021/08/05 02:34:07;;;;;;;0.80;0.80;;;14.70;99.90;;;;;;5041896;28;20222;-78
2021/08/05 02:36:34;;;;;;;0.80;0.80;;;14.70;99.90;;;;;;5039565;28;20229;-81
2021/08/05 02:39:01;;;;;;;0.68;0.68;;;14.80;99.90;;;;;;5042455;28;20680;-80
2021/08/05 02:41:29;;;;;;;0.80;0.80;;;14.80;99.90;;;;;;5038082;28;20712;-84
2021/08/05 02:43:58;;;;;;;0.80;0.80;;;14.80;99.90;;;;;;5044254;28;20195;-80
2021/08/05 02:46:26;;;;;;;0.90;0.90;;;14.80;99.90;;;;;;5040604;28;20234;-78
2021/08/05 02:48:56;;;;;;;3.30;1.00;;;14.70;99.90;;;;;;5040072;28;20203;-81
2021/08/05 02:51:23;;;;;;;2.35;1.10;;;14.70;99.90;;;;;;5039110;28;20565;-83
2021/08/05 02:53:51;;;;;;;1.73;0.90;;;14.60;99.90;;;;;;5039897;28;20215;-81
2021/08/05 02:56:19;;;;;;;1.08;1.00;;;14.60;99.90;;;;;;5036336;28;20219;-79
2021/08/05 02:58:47;;;;;;;0.82;0.82;;;14.60;99.90;;;;;;5039601;28;20245;-81
2021/08/05 03:01:15;;;;;;;0.93;0.93;;;14.60;99.90;;;;;;5041048;28;20218;-81
2021/08/05 03:03:42;;;;;;;0.80;0.80;;;14.60;99.90;;;;;;5044074;28;20263;-82
2021/08/05 03:06:13;;;;;;;0.70;0.70;;;14.60;99.90;;;;;;5042205;28;20306;-81
2021/08/05 03:08:41;;;;;;;0.82;0.82;;;14.70;99.90;;;;;;5038972;28;20252;-79
2021/08/05 03:11:08;;;;;;;0.80;0.80;;;14.70;99.90;;;;;;5039775;28;20318;-80
2021/08/05 03:13:36;;;;;;;0.80;0.80;;;14.70;99.90;;;;;;5040011;28;20203;-83
2021/08/05 03:16:03;;;;;;;1.02;0.90;;;14.70;99.90;;;;;;5040508;28;20222;-80
2021/08/05 03:18:30;;;;;;;0.80;0.80;;;14.70;99.90;;;;;;5043060;28;20191;-80
2021/08/05 03:20:57;;;;;;;0.90;0.90;;;14.70;99.90;;;;;;5041627;28;20210;-79
2021/08/05 03:23:25;;;;;;;1.42;0.70;;;14.70;99.90;;;;;;5040502;28;20203;-79
2021/08/05 03:25:52;;;;;;;0.60;0.60;;;14.70;99.90;;;;;;5039015;28;20219;-79
2021/08/05 03:28:19;;;;;;;0.80;0.80;;;14.60;99.90;;;;;;5043329;28;20741;-80
2021/08/05 03:30:46;;;;;;;0.75;0.73;;;14.60;99.90;;;;;;5040674;28;20214;-81
2021/08/05 03:33:13;;;;;;;0.90;0.90;;;14.60;99.90;;;;;;5040752;28;20300;-82
2021/08/05 03:35:40;;;;;;;0.70;0.70;;;14.60;99.90;;;;;;5037875;28;20328;-78
2021/08/05 03:38:08;;;;;;;0.70;0.70;;;14.60;99.90;;;;;;5041174;28;20238;-81
2021/08/05 03:40:36;;;;;;;0.80;0.80;;;14.60;99.90;;;;;;5041767;28;20222;-79
2021/08/05 03:43:03;;;;;;;0.70;0.70;;;14.60;99.90;;;;;;5041482;28;20277;-80
2021/08/05 03:45:30;;;;;;;0.88;0.88;;;14.70;99.90;;;;;;5036555;28;20640;-81
2021/08/05 03:47:57;;;;;;;0.77;0.77;;;14.80;99.90;;;;;;5035521;28;20257;-79
2021/08/05 03:50:24;;;;;;;0.80;0.80;;;14.70;99.90;;;;;;5042566;28;20628;-83
2021/08/05 03:52:51;;;;;;;0.68;0.68;;;14.80;99.90;;;;;;5041880;28;20266;-80
2021/08/05 03:55:18;;;;;;;0.80;0.80;;;14.80;99.90;;;;;;5039720;28;20280;-83
2021/08/05 03:57:47;;;;;;;0.70;0.70;;;14.80;99.90;;;;;;5039589;28;20246;-78
2021/08/05 04:00:16;;;;;;;0.80;0.80;;;14.80;99.90;;;;;;5039854;28;20211;-84
2021/08/05 04:02:43;;;;;;;0.73;0.73;;;14.80;99.90;;;;;;5036507;28;20215;-81
2021/08/05 04:05:11;;;;;;;0.77;0.77;;;14.70;99.90;;;;;;5038233;28;20701;-80
2021/08/05 04:07:39;;;;;;;0.70;0.70;;;14.70;99.90;;;;;;5020019;28;20655;-83
2021/08/05 04:10:07;;;;;;;0.80;0.80;;;14.70;99.90;;;;;;5028446;28;20227;-78
2021/08/05 04:12:34;;;;;;;0.80;0.80;;;14.70;99.90;;;;;;5027457;28;20559;-79
2021/08/05 04:15:03;;;;;;;0.60;0.60;;;14.70;99.90;;;;;;5028989;28;20216;-81
2021/08/05 04:17:30;;;;;;;0.70;0.70;;;14.60;99.90;;;;;;5030021;28;20258;-80
2021/08/05 04:19:57;;;;;;;0.80;0.80;;;14.50;99.90;;;;;;5028875;28;20228;-79
2021/08/05 04:22:24;;;;;;;0.60;0.60;;;14.50;99.90;;;;;;5038217;23;20663;-77
2021/08/05 04:24:51;;;;;;;0.82;0.70;;;14.40;99.90;;;;;;5028642;28;20285;-77
2021/08/05 04:27:18;;;;;;;0.85;0.85;;;14.40;99.90;;;;;;5030121;28;20250;-76
2021/08/05 04:29:45;;;;;;;0.52;0.52;;;14.40;99.90;;;;;;5032338;28;20227;-77
2021/08/05 04:32:14;;;;;;;1.35;0.77;;;14.30;99.90;;;;;;5045093;28;20219;-76
2021/08/05 04:34:41;;;;;;;0.60;0.60;;;14.30;99.90;;;;;;5039060;28;20676;-76
2021/08/05 04:37:08;;;;;;;0.80;0.80;;;14.40;99.90;;;;;;5040219;28;20638;-76
2021/08/05 04:39:35;;;;;;;0.90;0.90;;;14.30;99.90;;;;;;5046813;28;20377;-77
2021/08/05 04:42:02;;;;;;;0.70;0.70;;;14.30;99.90;;;;;;5036120;28;20215;-77
2021/08/05 04:44:29;;;;;;;1.58;0.90;;;14.30;99.90;;;;;;5039103;28;20662;-77
2021/08/05 04:46:56;;;;;;;0.57;0.57;;;14.30;99.90;;;;;;5039415;28;20204;-78
2021/08/05 04:49:24;;;;;;;0.55;0.55;;;14.40;99.90;;;;;;5036961;28;20203;-76
2021/08/05 04:51:53;;;;;;;0.88;0.88;;;14.40;99.90;;;;;;5039311;28;20278;-76
2021/08/05 04:54:21;;;;;;;0.82;0.82;;;14.40;99.90;;;;;;5043096;28;20704;-77
2021/08/05 04:56:48;;;;;;;0.73;0.73;;;14.40;99.90;;;;;;5039357;28;20595;-76
2021/08/05 04:59:15;;;;;;;1.23;0.77;;;14.40;99.90;;;;;;5034359;28;20196;-77
2021/08/05 05:01:43;;;;;;;0.68;0.68;;;14.40;99.90;;;;;;5038990;28;20621;-76
2021/08/05 05:04:11;;;;;;;0.80;0.80;;;14.50;99.90;;;;;;5039401;28;20404;-77
2021/08/05 05:06:39;;;;;;;0.63;0.63;;;14.60;99.90;;;;;;5040470;28;20263;-77
2021/08/05 05:09:07;;;;;;;0.90;0.90;;;14.80;99.90;;;;;;5040656;28;20195;-77
2021/08/05 05:11:34;;;;;;;0.60;0.60;;;15.10;99.90;;;;;;5042235;28;20211;-77
2021/08/05 05:14:01;;;;;;;0.80;0.80;;;15.40;99.90;;;;;;5037666;28;20549;-76
2021/08/05 05:16:28;;;;;;;0.70;0.70;;;15.50;99.90;;;;;;5035509;28;20726;-77
2021/08/05 05:18:55;;;;;;;0.70;0.70;;;15.60;99.90;;;;;;5042222;28;20191;-76
2021/08/05 05:21:22;;;;;;;0.80;0.80;;;15.70;99.90;;;;;;5034598;28;20231;-76
2021/08/05 05:23:50;;;;;;;0.70;0.70;;;15.90;99.90;;;;;;5039187;28;20211;-77
2021/08/05 05:26:17;;;;;;;0.70;0.70;;;16.10;99.90;;;;;;5038282;28;20269;-76
2021/08/05 05:28:45;;;;;;;1.10;0.80;;;16.30;99.90;;;;;;5037709;28;20199;-76
2021/08/05 05:31:12;;;;;;;1.00;0.90;;;16.50;99.90;;;;;;5037232;28;20223;-77
2021/08/05 05:33:39;;;;;;;0.70;0.70;;;16.70;99.90;;;;;;5035424;28;20313;-76
2021/08/05 05:36:06;;;;;;;0.80;0.80;;;16.90;99.90;;;;;;5035434;28;20219;-76
2021/08/05 05:38:33;;;;;;;0.70;0.70;;;17.00;99.90;;;;;;5033876;28;20203;-76
2021/08/05 05:41:02;;;;;;;0.90;0.70;;;17.20;99.90;;;;;;5035110;28;20775;-76
2021/08/05 05:43:29;;;;;;;0.68;0.68;;;17.30;99.90;;;;;;5038857;28;20706;-77
2021/08/05 05:45:56;;;;;;;0.70;0.70;;;17.50;99.90;;;;;;5037123;28;20282;-77
2021/08/05 05:48:23;;;;;;;1.85;0.80;;;17.50;99.90;;;;;;5039599;28;20262;-76
2021/08/05 05:50:50;;;;;;;0.82;0.70;;;17.60;99.90;;;;;;5035841;28;20642;-76
2021/08/05 05:53:17;;;;;;;2.22;0.80;;;17.80;99.90;;;;;;5037148;28;20223;-77
2021/08/05 05:55:44;;;;;;;1.45;0.93;;;17.90;99.90;;;;;;5033700;28;20307;-76
2021/08/05 05:58:12;;;;;;;1.05;0.75;;;18.00;99.90;;;;;;5033995;28;20200;-76
2021/08/05 06:00:39;;;;;;;1.05;0.98;;;18.10;99.90;;;;;;5037906;28;20309;-76
2021/08/05 06:03:06;;;;;;;1.48;0.77;;;18.20;99.90;;;;;;5039277;28;20210;-76
2021/08/05 06:05:34;;;;;;;1.83;1.00;;;18.20;99.90;;;;;;5037246;28;20231;-77
2021/08/05 06:08:01;;;;;;;0.63;0.63;;;18.40;99.90;;;;;;5042533;28;20278;-77
2021/08/05 06:10:28;;;;;;;2.17;1.00;;;18.50;99.90;;;;;;5038072;28;20277;-77
2021/08/05 06:12:55;;;;;;;1.42;0.90;;;18.80;99.90;;;;;;5036267;28;20658;-76
2021/08/05 06:15:24;;;;;;;1.00;0.80;;;18.90;99.90;;;;;;5036190;28;20227;-77
2021/08/05 06:17:51;;;;;;;1.83;0.85;;;18.80;99.90;;;;;;5038297;28;20250;-76
2021/08/05 06:20:19;;;;;;;1.15;0.90;;;18.60;99.90;;;;;;5042248;28;20276;-77
2021/08/05 06:22:47;;;;;;;1.50;1.00;;;18.50;99.90;;;;;;5036758;28;20227;-76
2021/08/05 06:25:15;;;;;;;2.30;1.05;;;18.60;99.90;;;;;;5034624;28;20234;-77
2021/08/05 06:27:42;;;;;;;2.17;0.90;;;18.80;99.90;;;;;;5035239;28;20253;-76
2021/08/05 06:30:11;;;;;;;2.40;0.95;;;19.00;99.90;;;;;;5035597;28;20207;-77
2021/08/05 06:32:39;;;;;;;0.82;0.75;;;19.00;99.90;;;;;;5034602;28;20218;-76
2021/08/05 06:35:07;;;;;;;1.10;0.73;;;19.20;99.90;;;;;;5037069;28;20273;-77
2021/08/05 06:37:35;;;;;;;0.80;0.80;;;19.30;99.90;;;;;;5035030;28;20199;-76
2021/08/05 06:40:05;;;;;;;1.23;0.73;;;19.60;99.90;;;;;;5033080;28;20211;-77
2021/08/05 06:42:33;;;;;;;0.82;0.80;;;19.80;99.90;;;;;;5035243;28;20724;-77
2021/08/05 06:45:00;;;;;;;1.67;0.80;;;19.60;99.90;;;;;;5025367;28;20618;-77
2021/08/05 06:47:27;;;;;;;0.80;0.60;;;19.50;99.90;;;;;;5022787;28;20199;-77
2021/08/05 06:49:56;;;;;;;0.88;0.88;;;19.50;99.90;;;;;;5029997;28;20195;-77
2021/08/05 06:52:24;;;;;;;0.93;0.70;;;19.50;99.90;;;;;;5022610;28;20694;-76
2021/08/05 06:54:51;;;;;;;0.70;0.70;;;19.70;99.90;;;;;;5024950;28;20579;-78
2021/08/05 06:57:18;;;;;;;0.70;0.60;;;19.70;99.90;;;;;;5024951;28;20324;-78
2021/08/05 06:59:45;;;;;;;0.80;0.80;;;19.70;99.90;;;;;;5025879;28;20542;-77
2021/08/05 07:02:12;;;;;;;1.00;0.90;;;19.50;99.90;;;;;;5028516;28;20238;-76
2021/08/05 07:04:39;;;;;;;1.38;0.90;;;19.50;99.90;;;;;;5024850;28;20203;-76
2021/08/05 07:07:07;;;;;;;0.70;0.60;;;19.50;99.90;;;;;;5028985;28;20235;-77
2021/08/05 07:09:34;;;;;;;0.95;0.70;;;19.50;99.90;;;;;;5027553;28;21376;-78
2021/08/05 07:12:01;;;;;;;0.98;0.70;;;19.70;99.90;;;;;;5032652;28;20649;-78
2021/08/05 07:14:28;;;;;;;0.75;0.75;;;19.80;99.90;;;;;;5021166;28;20203;-77
2021/08/05 07:16:55;;;;;;;0.95;0.57;;;19.90;99.90;;;;;;5025351;28;20285;-77
2021/08/05 07:19:22;;;;;;;0.70;0.70;;;20.20;99.90;;;;;;5023095;28;20207;-75
2021/08/05 07:21:49;;;;;;;1.05;0.88;;;20.30;99.90;;;;;;5024626;28;20677;-76
2021/08/05 07:24:18;;;;;;;0.60;0.60;;;20.20;99.90;;;;;;5028061;28;20195;-78
2021/08/05 07:26:45;;;;;;;0.70;0.70;;;20.30;99.90;;;;;;5024396;28;20219;-76
2021/08/05 07:29:12;;;;;;;1.45;0.80;;;20.50;99.90;;;;;;5029945;28;20199;-77
2021/08/05 07:31:39;;;;;;;0.77;0.70;;;20.60;99.90;;;;;;5022743;28;20744;-77
2021/08/05 07:34:06;;;;;;;1.85;0.80;;;20.50;99.90;;;;;;5027273;28;20557;-77
2021/08/05 07:36:34;;;;;;;1.67;0.80;;;20.60;99.90;;;;;;5025594;28;20700;-75
2021/08/05 07:39:01;;;;;;;0.70;0.70;;;20.80;99.90;;;;;;5026540;28;20200;-77
2021/08/05 07:41:29;;;;;;;0.75;0.75;;;20.80;99.90;;;;;;5020710;28;20269;-77
2021/08/05 07:43:56;;;;;;;0.50;0.50;;;20.30;99.90;;;;;;5029090;28;20194;-78
2021/08/05 07:46:23;;;;;;;0.85;0.63;;;20.30;99.90;;;;;;5026529;28;20222;-77
2021/08/05 07:48:50;;;;;;;0.60;0.60;;;20.20;99.90;;;;;;5026100;28;20744;-76
2021/08/05 07:51:17;;;;;;;0.80;0.80;;;20.10;99.90;;;;;;5022250;28;20281;-77
2021/08/05 07:53:44;;;;;;;0.50;0.50;;;19.70;99.90;;;;;;5027854;28;20199;-77
2021/08/05 07:56:11;;;;;;;0.70;0.70;;;19.50;99.90;;;;;;5025263;28;20659;-77
2021/08/05 07:58:40;;;;;;;0.65;0.65;;;19.50;99.90;;;;;;5025755;28;20650;-76
2021/08/05 08:01:07;;;;;;;1.60;0.82;;;19.50;99.90;;;;;;5025406;28;20636;-76
2021/08/05 08:03:34;;;;;;;0.70;0.70;;;19.60;99.90;;;;;;5030099;28;20276;-75
2021/08/05 08:06:01;;;;;;;0.88;0.68;;;19.80;99.90;;;;;;5037495;28;20231;-76
2021/08/05 08:08:28;;;;;;;0.95;0.85;;;19.90;99.90;;;;;;5027085;28;20215;-76
2021/08/05 08:10:55;;;;;;;1.15;0.75;;;19.90;99.90;;;;;;5036944;28;20724;-77
2021/08/05 08:13:22;;;;;;;0.60;0.60;;;20.30;99.90;;;;;;5025895;28;20222;-76
2021/08/05 08:15:50;;;;;;;1.20;1.00;;;20.60;99.90;;;;;;5032521;28;20219;-76
2021/08/05 08:18:18;;;;;;;1.10;0.75;;;20.80;99.90;;;;;;5033614;28;20203;-78
2021/08/05 08:20:45;;;;;;;0.80;0.70;;;20.90;99.90;;;;;;5027745;28;20223;-75
2021/08/05 08:23:12;;;;;;;0.82;0.70;;;21.10;99.90;;;;;;5030243;28;20227;-77
2021/08/05 08:25:40;;;;;;;0.57;0.50;;;21.40;99.90;;;;;;5029328;28;20472;-77
2021/08/05 08:28:08;;;;;;;1.25;0.88;;;21.80;99.90;;;;;;5027575;28;20195;-78
2021/08/05 08:30:36;;;;;;;0.50;0.50;;;21.80;99.90;;;;;;5025655;28;20195;-77
2021/08/05 08:33:05;;;;;;;2.55;0.75;;;22.00;99.90;;;;;;5026381;28;20219;-77
2021/08/05 08:35:32;;;;;;;1.08;0.68;;;22.00;99.90;;;;;;5027138;28;20207;-75
2021/08/05 08:37:59;;;;;;;0.95;0.80;;;21.90;99.90;;;;;;5031564;28;20619;-78
2021/08/05 08:40:27;;;;;;;1.20;0.60;;;21.80;99.90;;;;;;5026001;28;20266;-77
2021/08/05 08:42:54;;;;;;;1.17;0.80;;;22.00;99.90;;;;;;5027316;28;20219;-76
2021/08/05 08:45:21;;;;;;;0.50;0.50;;;22.20;99.90;;;;;;5028463;28;20273;-76
2021/08/05 08:47:53;;;;;;;0.50;0.50;;;22.50;99.90;;;;;;5031110;28;20278;-77
2021/08/05 08:50:24;;;;;;;0.65;0.65;;;22.50;99.90;;;;;;5033317;28;20210;-76
2021/08/05 08:52:54;;;;;;;1.90;0.52;;;22.60;99.90;;;;;;5024022;28;20280;-76
2021/08/05 08:55:24;;;;;;;0.55;0.50;;;22.70;99.90;;;;;;5028712;28;20720;-74
2021/08/05 08:57:54;;;;;;;1.92;0.60;;;22.70;99.90;;;;;;5022408;28;20773;-76
2021/08/05 09:00:22;;;;;;;0.80;0.73;;;22.80;99.90;;;;;;5028766;28;20516;-74
2021/08/05 09:02:49;;;;;;;0.77;0.70;;;22.90;99.90;;;;;;5025218;28;20273;-78
2021/08/05 09:05:16;;;;;;;2.05;0.70;;;23.10;99.90;;;;;;5030551;28;20202;-75
2021/08/05 09:07:45;;;;;;;0.60;0.60;;;22.80;99.90;;;;;;5022811;28;20227;-76
2021/08/05 09:10:13;;;;;;;0.95;0.60;;;22.80;99.90;;;;;;5034689;28;20199;-75
2021/08/05 09:12:42;;;;;;;1.55;0.60;;;22.70;99.90;;;;;;5025340;28;20230;-78
2021/08/05 09:15:10;;;;;;;1.73;0.60;;;22.90;99.90;;;;;;5024747;28;20214;-78
2021/08/05 09:17:42;;;;;;;1.27;0.80;;;23.10;99.90;;;;;;5032889;28;20228;-77
2021/08/05 09:20:12;;;;;;;0.50;0.50;;;23.50;99.90;;;;;;5023463;28;20208;-77
2021/08/05 09:22:41;;;;;;;0.60;0.60;;;23.80;99.90;;;;;;5028340;28;20742;-77
2021/08/05 09:25:34;;;;;;;4.93;0.80;;;23.80;99.90;;;;;;5028470;28;20258;-78
2021/08/05 09:28:14;;;;;;;0.50;0.50;;;23.90;99.90;;;;;;5019696;28;20218;-78
2021/08/05 09:30:42;;;;;;;0.85;0.70;;;24.00;99.90;;;;;;5030398;28;20748;-77
2021/08/05 09:33:12;;;;;;;0.65;0.57;;;24.10;99.90;;;;;;5028509;28;20216;-76
2021/08/05 09:35:40;;;;;;;1.33;0.55;;;24.20;99.90;;;;;;5029401;28;20661;-74
2021/08/05 09:38:22;;;;;;;1.65;0.70;;;24.40;99.90;;;;;;5032017;28;20194;-76
2021/08/05 09:41:07;;;;;;;1.40;0.80;;;24.40;99.90;;;;;;5036297;28;20208;-73
2021/08/05 09:43:34;;;;;;;1.67;0.70;;;24.50;99.90;;;;;;5027256;28;20254;-77
2021/08/05 09:46:01;;;;;;;0.57;0.57;;;24.50;99.90;;;;;;5032961;28;20534;-77
2021/08/05 09:48:40;;;;;;;0.70;0.60;;;24.40;99.90;;;;;;5028077;28;20797;-77
2021/08/05 09:51:09;;;;;;;1.70;0.65;;;24.40;99.90;;;;;;5023817;28;20250;-75
2021/08/05 09:53:36;;;;;;;0.65;0.65;;;24.50;99.90;;;;;;5030819;28;20300;-73
2021/08/05 09:56:12;;;;;;;0.60;0.60;;;24.40;99.90;;;;;;5023804;28;20320;-77
2021/08/05 09:58:40;;;;;;;1.40;0.50;;;24.50;99.90;;;;;;5034452;28;20579;-73
2021/08/05 10:01:08;;;;;;;0.50;0.50;;;24.40;99.90;;;;;;5026021;28;20600;-76
2021/08/05 10:03:35;;;;;;;2.35;0.70;;;24.50;99.90;;;;;;5026514;28;20684;-76
2021/08/05 10:06:03;;;;;;;2.55;0.60;;;24.60;99.90;;;;;;5030102;28;20199;-77
2021/08/05 10:08:34;;;;;;;0.50;0.50;;;24.70;99.90;;;;;;5026121;28;20508;-78
2021/08/05 10:11:02;;;;;;;0.60;0.60;;;24.70;99.90;;;;;;5030496;28;20284;-76
2021/08/05 10:13:34;;;;;;;0.65;0.55;;;24.70;99.90;;;;;;5022456;28;20226;-75
2021/08/05 10:16:01;;;;;;;0.70;0.50;;;24.70;99.90;;;;;;5029487;28;20202;-75
2021/08/05 10:18:33;;;;;;;2.38;0.70;;;24.70;99.90;;;;;;5024186;28;20200;-74
2021/08/05 10:21:02;;;;;;;0.80;0.60;;;24.50;99.90;;;;;;5028100;28;20573;-75
2021/08/05 10:23:29;;;;;;;1.50;0.50;;;24.50;99.90;;;;;;5044079;22;20215;-78
2021/08/05 10:25:58;;;;;;;0.60;0.60;;;24.70;99.90;;;;;;5034869;28;20245;-77
2021/08/05 10:28:27;;;;;;;1.27;0.60;;;24.70;99.90;;;;;;5003520;28;20435;-78
2021/08/05 10:30:57;;;;;;;0.60;0.60;;;24.80;99.90;;;;;;5001910;28;21334;-78
2021/08/05 10:33:24;;;;;;;0.68;0.60;;;25.10;99.90;;;;;;5002310;28;20225;-76
2021/08/05 10:35:52;;;;;;;0.43;0.43;;;25.40;99.90;;;;;;5006932;28;20199;-78
2021/08/05 10:38:21;;;;;;;1.23;0.60;;;25.50;99.90;;;;;;5008838;28;20192;-78
2021/08/05 10:40:50;;;;;;;0.75;0.60;;;25.70;99.90;;;;;;4999523;28;20760;-78
2021/08/05 10:43:18;;;;;;;2.78;0.70;;;25.60;99.90;;;;;;4999754;28;20702;-77
2021/08/05 10:45:45;;;;;;;0.55;0.50;;;25.40;99.90;;;;;;5000647;28;20197;-77
2021/08/05 10:48:14;;;;;;;1.52;0.50;;;25.40;99.90;;;;;;5020791;28;20220;-78
2021/08/05 10:50:43;;;;;;;0.60;0.60;;;25.40;99.90;;;;;;5021112;28;20203;-78
2021/08/05 10:53:13;;;;;;;0.40;0.40;;;25.40;99.90;;;;;;5016914;28;20231;-78
2021/08/05 10:55:41;;;;;;;1.58;0.60;;;25.60;99.90;;;;;;5017585;28;20196;-76
2021/08/05 10:58:17;;;;;;;0.68;0.60;;;25.80;99.90;;;;;;5025347;28;20598;-77
2021/08/05 11:01:02;;;;;;;0.50;0.50;;;25.90;99.90;;;;;;5016013;28;21992;-79
2021/08/05 11:03:44;;;;;;;0.63;0.40;;;25.80;99.90;;;;;;5020597;28;20223;-78
2021/08/05 11:06:35;;;;;;;0.50;0.50;;;25.70;99.90;;;;;;5018507;28;20187;-79
2021/08/05 11:09:25;;;;;;;0.40;0.40;;;25.50;99.90;;;;;;5019783;28;20191;-79
2021/08/05 11:11:52;;;;;;;1.00;0.60;;;25.30;99.90;;;;;;5016050;28;20223;-77
2021/08/05 11:14:41;;;;;;;0.60;0.60;;;25.30;99.90;;;;;;5016824;28;20212;-77
2021/08/05 11:17:09;;;;;;;3.17;0.60;;;25.30;99.90;;;;;;5028460;28;20215;-80
2021/08/05 11:19:41;;;;;;;0.40;0.40;;;25.30;99.90;;;;;;5028581;28;20670;-79
2021/08/05 11:22:53;;;;;;;2.28;0.50;;;25.30;99.90;;;;;;5017028;28;20261;-77
2021/08/05 11:25:22;;;;;;;0.63;0.52;;;25.10;99.90;;;;;;5020071;28;20668;-77
2021/08/05 11:28:22;;;;;;;0.40;0.40;;;25.30;99.90;;;;;;5013024;28;20290;-78
2021/08/05 11:30:51;;;;;;;0.43;0.43;;;25.40;99.90;;;;;;5018852;28;20285;-79
2021/08/05 11:33:50;;;;;;;0.50;0.40;;;25.50;99.90;;;;;;5016994;28;20806;-78
2021/08/05 11:36:34;;;;;;;0.40;0.40;;;25.70;99.90;;;;;;5019511;28;20234;-79
2021/08/05 11:39:10;;;;;;;0.60;0.50;;;26.10;99.90;;;;;;5017930;28;20569;-77
2021/08/05 11:41:42;;;;;;;0.60;0.47;;;26.40;99.90;;;;;;5018992;28;20650;-78
2021/08/05 11:44:38;;;;;;;0.40;0.40;;;26.40;99.90;;;;;;5021065;28;20222;-78
2021/08/05 11:47:42;;;;;;;0.50;0.50;;;26.30;99.90;;;;;;4993709;28;20211;-78
2021/08/05 11:50:13;;;;;;;0.68;0.60;;;26.10;99.90;;;;;;5015642;28;20199;-78
2021/08/05 11:52:43;;;;;;;0.50;0.50;;;26.00;99.90;;;;;;5018617;28;20223;-78
2021/08/05 11:55:13;;;;;;;0.70;0.70;;;26.30;99.90;;;;;;5017777;28;20199;-78
2021/08/05 11:57:42;;;;;;;1.08;0.70;;;26.60;99.90;;;;;;5021327;28;20223;-77
2021/08/05 12:00:13;;;;;;;0.40;0.40;;;26.90;99.90;;;;;;5016147;28;20614;-77
2021/08/05 12:02:41;;;;;;;0.40;0.40;;;27.10;99.90;;;;;;5017209;28;20227;-77
2021/08/05 12:05:09;;;;;;;0.40;0.40;;;27.40;99.90;;;;;;5011873;28;20206;-77
2021/08/05 12:07:37;;;;;;;0.40;0.40;;;27.50;99.90;;;;;;5021077;28;20307;-79
2021/08/05 12:10:09;;;;;;;0.40;0.40;;;27.60;99.90;;;;;;5031345;28;20199;-79
2021/08/05 12:12:39;;;;;;;0.85;0.50;;;27.60;99.90;;;;;;5017220;28;20223;-76
2021/08/05 12:15:08;;;;;;;1.90;0.50;;;27.60;99.90;;;;;;5021542;28;20204;-77
2021/08/05 12:17:41;;;;;;;0.40;0.40;;;27.40;99.90;;;;;;5016418;28;20230;-78
2021/08/05 12:20:12;;;;;;;0.43;0.43;;;27.40;99.90;;;;;;5018101;28;20239;-76
2021/08/05 12:22:41;;;;;;;0.40;0.40;;;27.30;99.90;;;;;;5006552;28;20224;-78
2021/08/05 12:25:37;;;;;;;0.75;0.40;;;27.20;99.90;;;;;;4998879;28;20204;-77
2021/08/05 12:28:08;;;;;;;0.60;0.50;;;27.10;99.90;;;;;;4997487;28;20240;-78
2021/08/05 12:30:41;;;;;;;0.50;0.50;;;27.10;99.90;;;;;;4997144;28;20192;-79
2021/08/05 12:33:14;;;;;;;1.20;0.47;;;27.20;99.90;;;;;;4995489;28;20236;-78
2021/08/05 12:35:42;;;;;;;0.40;0.40;;;27.20;99.90;;;;;;5000861;28;20201;-77
2021/08/05 12:38:11;;;;;;;0.57;0.52;;;27.20;99.90;;;;;;4993326;28;20244;-79
2021/08/05 12:40:45;;;;;;;0.65;0.40;;;27.40;99.90;;;;;;5000774;28;20196;-79
2021/08/05 12:43:13;;;;;;;0.73;0.50;;;27.40;99.90;;;;;;5000120;28;20261;-78
2021/08/05 12:45:44;;;;;;;0.40;0.40;;;27.40;99.90;;;;;;5001690;28;20205;-78
2021/08/05 12:48:12;;;;;;;0.30;0.30;;;27.60;99.90;;;;;;5002254;28;20768;-77
2021/08/05 12:50:43;;;;;;;0.75;0.50;;;27.60;99.90;;;;;;5004007;28;20196;-77
2021/08/05 12:53:11;;;;;;;1.13;0.50;;;27.70;99.90;;;;;;5000230;28;20224;-78
2021/08/05 12:55:58;;;;;;;0.32;0.32;;;27.50;99.90;;;;;;5000696;28;20681;-78
2021/08/05 12:58:27;;;;;;;0.38;0.38;;;26.70;99.90;;;;;;4998263;28;20224;-78